sensor_id;sensor_type;location;lat;lon;timestamp;P1;durP1;ratioP1;P2;durP2;ratioP2
31754;SDS011;18325;52.018;4.726;2022-09-30T00:00:54;6.60;;;4.17;;
31754;SDS011;18325;52.018;4.726;2022-09-30T00:03:21;7.07;;;4.27;;
31754;SDS011;18325;52.018;4.726;2022-09-30T00:05:54;7.07;;;4.80;;
31754;SDS011;18325;52.018;4.726;2022-09-30T00:08:21;5.97;;;3.83;;
31754;SDS011;18325;52.018;4.726;2022-09-30T00:10:56;5.93;;;4.10;;
31754;SDS011;18325;52.018;4.726;2022-09-30T00:13:24;5.20;;;3.67;;
31754;SDS011;18325;52.018;4.726;2022-09-30T00:15:52;5.77;;;3.97;;
31754;SDS011;18325;52.018;4.726;2022-09-30T00:18:18;6.47;;;3.70;;
31754;SDS011;18325;52.018;4.726;2022-09-30T00:20:46;6.27;;;3.37;;
31754;SDS011;18325;52.018;4.726;2022-09-30T00:23:14;5.27;;;3.90;;
31754;SDS011;18325;52.018;4.726;2022-09-30T00:25:42;4.37;;;3.53;;
31754;SDS011;18325;52.018;4.726;2022-09-30T00:28:09;4.73;;;3.33;;
31754;SDS011;18325;52.018;4.726;2022-09-30T00:30:35;5.27;;;2.87;;
31754;SDS011;18325;52.018;4.726;2022-09-30T00:33:03;6.53;;;3.57;;
31754;SDS011;18325;52.018;4.726;2022-09-30T00:35:30;5.97;;;4.00;;
31754;SDS011;18325;52.018;4.726;2022-09-30T00:37:56;4.00;;;3.47;;
31754;SDS011;18325;52.018;4.726;2022-09-30T00:40:24;4.77;;;3.37;;
31754;SDS011;18325;52.018;4.726;2022-09-30T00:42:51;5.93;;;4.20;;
31754;SDS011;18325;52.018;4.726;2022-09-30T00:45:19;6.20;;;4.10;;
31754;SDS011;18325;52.018;4.726;2022-09-30T00:47:47;5.73;;;3.97;;
31754;SDS011;18325;52.018;4.726;2022-09-30T00:50:18;4.70;;;3.53;;
31754;SDS011;18325;52.018;4.726;2022-09-30T00:52:54;7.37;;;3.83;;
31754;SDS011;18325;52.018;4.726;2022-09-30T00:55:27;5.63;;;3.40;;
31754;SDS011;18325;52.018;4.726;2022-09-30T00:57:57;11.53;;;3.40;;
31754;SDS011;18325;52.018;4.726;2022-09-30T01:00:24;5.20;;;3.00;;
31754;SDS011;18325;52.018;4.726;2022-09-30T01:02:52;4.40;;;3.03;;
31754;SDS011;18325;52.018;4.726;2022-09-30T01:05:20;4.23;;;3.20;;
31754;SDS011;18325;52.018;4.726;2022-09-30T01:07:47;5.67;;;3.20;;
31754;SDS011;18325;52.018;4.726;2022-09-30T01:10:14;3.30;;;2.43;;
31754;SDS011;18325;52.018;4.726;2022-09-30T01:12:41;5.30;;;3.10;;
31754;SDS011;18325;52.018;4.726;2022-09-30T01:15:08;4.77;;;2.50;;
31754;SDS011;18325;52.018;4.726;2022-09-30T01:17:40;4.30;;;3.13;;
31754;SDS011;18325;52.018;4.726;2022-09-30T01:23:23;8.00;;;2.83;;
31754;SDS011;18325;52.018;4.726;2022-09-30T01:26:24;4.07;;;2.87;;
31754;SDS011;18325;52.018;4.726;2022-09-30T01:29:06;5.47;;;2.87;;
31754;SDS011;18325;52.018;4.726;2022-09-30T01:31:54;3.80;;;2.80;;
31754;SDS011;18325;52.018;4.726;2022-09-30T01:34:35;4.40;;;2.77;;
31754;SDS011;18325;52.018;4.726;2022-09-30T01:37:07;11.87;;;2.97;;
31754;SDS011;18325;52.018;4.726;2022-09-30T01:39:41;4.57;;;2.93;;
31754;SDS011;18325;52.018;4.726;2022-09-30T01:42:17;3.57;;;2.53;;
31754;SDS011;18325;52.018;4.726;2022-09-30T01:44:51;3.33;;;2.70;;
31754;SDS011;18325;52.018;4.726;2022-09-30T01:47:29;3.87;;;2.60;;
31754;SDS011;18325;52.018;4.726;2022-09-30T01:49:59;5.30;;;3.10;;
31754;SDS011;18325;52.018;4.726;2022-09-30T01:52:36;3.63;;;2.63;;
31754;SDS011;18325;52.018;4.726;2022-09-30T01:55:06;3.47;;;2.27;;
31754;SDS011;18325;52.018;4.726;2022-09-30T01:57:38;3.10;;;2.40;;
31754;SDS011;18325;52.018;4.726;2022-09-30T02:00:08;6.00;;;3.23;;
31754;SDS011;18325;52.018;4.726;2022-09-30T02:02:40;4.90;;;2.60;;
31754;SDS011;18325;52.018;4.726;2022-09-30T02:05:11;3.13;;;2.50;;
31754;SDS011;18325;52.018;4.726;2022-09-30T02:07:42;2.60;;;2.20;;
31754;SDS011;18325;52.018;4.726;2022-09-30T02:10:13;2.80;;;2.33;;
31754;SDS011;18325;52.018;4.726;2022-09-30T02:12:43;4.00;;;2.87;;
31754;SDS011;18325;52.018;4.726;2022-09-30T02:15:14;5.13;;;2.10;;
31754;SDS011;18325;52.018;4.726;2022-09-30T02:17:46;4.20;;;3.10;;
31754;SDS011;18325;52.018;4.726;2022-09-30T02:20:15;3.83;;;2.23;;
31754;SDS011;18325;52.018;4.726;2022-09-30T02:22:44;5.30;;;2.87;;
31754;SDS011;18325;52.018;4.726;2022-09-30T02:25:15;3.73;;;2.43;;
31754;SDS011;18325;52.018;4.726;2022-09-30T02:27:45;2.93;;;2.70;;
31754;SDS011;18325;52.018;4.726;2022-09-30T02:30:15;4.60;;;2.50;;
31754;SDS011;18325;52.018;4.726;2022-09-30T02:32:42;2.83;;;2.27;;
31754;SDS011;18325;52.018;4.726;2022-09-30T02:35:16;5.80;;;2.40;;
31754;SDS011;18325;52.018;4.726;2022-09-30T02:37:53;6.17;;;2.73;;
31754;SDS011;18325;52.018;4.726;2022-09-30T02:40:23;4.17;;;2.47;;
31754;SDS011;18325;52.018;4.726;2022-09-30T02:42:53;3.70;;;2.40;;
31754;SDS011;18325;52.018;4.726;2022-09-30T02:45:21;2.73;;;2.37;;
31754;SDS011;18325;52.018;4.726;2022-09-30T02:47:57;3.27;;;2.50;;
31754;SDS011;18325;52.018;4.726;2022-09-30T02:50:30;4.17;;;2.47;;
31754;SDS011;18325;52.018;4.726;2022-09-30T02:53:02;3.90;;;2.33;;
31754;SDS011;18325;52.018;4.726;2022-09-30T02:55:41;5.67;;;2.70;;
31754;SDS011;18325;52.018;4.726;2022-09-30T02:58:14;3.67;;;2.50;;
31754;SDS011;18325;52.018;4.726;2022-09-30T03:00:42;3.73;;;2.50;;
31754;SDS011;18325;52.018;4.726;2022-09-30T03:03:11;3.23;;;2.30;;
31754;SDS011;18325;52.018;4.726;2022-09-30T03:05:41;3.20;;;2.07;;
31754;SDS011;18325;52.018;4.726;2022-09-30T03:08:09;3.87;;;2.53;;
31754;SDS011;18325;52.018;4.726;2022-09-30T03:10:36;3.43;;;2.47;;
31754;SDS011;18325;52.018;4.726;2022-09-30T03:13:08;3.40;;;2.57;;
31754;SDS011;18325;52.018;4.726;2022-09-30T03:15:43;3.57;;;2.37;;
31754;SDS011;18325;52.018;4.726;2022-09-30T03:18:19;3.13;;;2.20;;
31754;SDS011;18325;52.018;4.726;2022-09-30T03:20:55;4.13;;;2.27;;
31754;SDS011;18325;52.018;4.726;2022-09-30T03:26:17;3.70;;;2.87;;
31754;SDS011;18325;52.018;4.726;2022-09-30T03:28:53;3.80;;;2.33;;
31754;SDS011;18325;52.018;4.726;2022-09-30T03:31:29;4.13;;;2.67;;
31754;SDS011;18325;52.018;4.726;2022-09-30T03:34:02;3.10;;;2.50;;
31754;SDS011;18325;52.018;4.726;2022-09-30T03:36:34;3.37;;;2.00;;
31754;SDS011;18325;52.018;4.726;2022-09-30T03:39:02;4.83;;;2.97;;
31754;SDS011;18325;52.018;4.726;2022-09-30T03:41:32;3.47;;;2.90;;
31754;SDS011;18325;52.018;4.726;2022-09-30T03:44:04;3.70;;;2.63;;
31754;SDS011;18325;52.018;4.726;2022-09-30T03:46:35;6.07;;;2.57;;
31754;SDS011;18325;52.018;4.726;2022-09-30T03:49:08;3.70;;;2.70;;
31754;SDS011;18325;52.018;4.726;2022-09-30T03:51:37;3.60;;;2.77;;
31754;SDS011;18325;52.018;4.726;2022-09-30T03:54:05;4.30;;;2.60;;
31754;SDS011;18325;52.018;4.726;2022-09-30T03:56:34;3.83;;;2.97;;
31754;SDS011;18325;52.018;4.726;2022-09-30T03:59:01;4.30;;;2.70;;
31754;SDS011;18325;52.018;4.726;2022-09-30T04:01:28;3.87;;;2.80;;
31754;SDS011;18325;52.018;4.726;2022-09-30T04:03:54;6.30;;;3.27;;
31754;SDS011;18325;52.018;4.726;2022-09-30T04:06:23;4.50;;;2.60;;
31754;SDS011;18325;52.018;4.726;2022-09-30T04:08:50;5.60;;;2.73;;
31754;SDS011;18325;52.018;4.726;2022-09-30T04:11:18;3.27;;;2.50;;
31754;SDS011;18325;52.018;4.726;2022-09-30T04:13:44;5.13;;;2.30;;
31754;SDS011;18325;52.018;4.726;2022-09-30T04:16:13;3.50;;;2.70;;
31754;SDS011;18325;52.018;4.726;2022-09-30T04:18:39;4.43;;;2.80;;
31754;SDS011;18325;52.018;4.726;2022-09-30T04:21:08;2.83;;;2.27;;
31754;SDS011;18325;52.018;4.726;2022-09-30T04:23:37;3.60;;;2.80;;
31754;SDS011;18325;52.018;4.726;2022-09-30T04:26:05;5.07;;;3.17;;
31754;SDS011;18325;52.018;4.726;2022-09-30T04:28:33;5.43;;;2.70;;
31754;SDS011;18325;52.018;4.726;2022-09-30T04:31:00;7.83;;;3.20;;
31754;SDS011;18325;52.018;4.726;2022-09-30T04:33:27;4.77;;;3.17;;
31754;SDS011;18325;52.018;4.726;2022-09-30T04:35:53;4.03;;;3.17;;
31754;SDS011;18325;52.018;4.726;2022-09-30T04:38:20;5.07;;;3.43;;
31754;SDS011;18325;52.018;4.726;2022-09-30T04:40:50;5.77;;;3.30;;
31754;SDS011;18325;52.018;4.726;2022-09-30T04:43:19;4.60;;;3.20;;
31754;SDS011;18325;52.018;4.726;2022-09-30T04:45:47;4.30;;;3.17;;
31754;SDS011;18325;52.018;4.726;2022-09-30T04:48:14;4.80;;;3.67;;
31754;SDS011;18325;52.018;4.726;2022-09-30T04:50:41;7.17;;;3.63;;
31754;SDS011;18325;52.018;4.726;2022-09-30T04:53:08;5.57;;;3.90;;
31754;SDS011;18325;52.018;4.726;2022-09-30T04:55:37;7.90;;;4.00;;
31754;SDS011;18325;52.018;4.726;2022-09-30T04:58:05;6.00;;;3.80;;
31754;SDS011;18325;52.018;4.726;2022-09-30T05:00:32;4.43;;;2.97;;
31754;SDS011;18325;52.018;4.726;2022-09-30T05:02:58;7.80;;;4.30;;
31754;SDS011;18325;52.018;4.726;2022-09-30T05:05:25;7.13;;;4.13;;
31754;SDS011;18325;52.018;4.726;2022-09-30T05:07:51;5.57;;;4.13;;
31754;SDS011;18325;52.018;4.726;2022-09-30T05:10:18;7.00;;;4.77;;
31754;SDS011;18325;52.018;4.726;2022-09-30T05:12:45;8.93;;;5.03;;
31754;SDS011;18325;52.018;4.726;2022-09-30T05:15:14;18.97;;;10.93;;
31754;SDS011;18325;52.018;4.726;2022-09-30T05:17:43;38.97;;;19.57;;
31754;SDS011;18325;52.018;4.726;2022-09-30T05:20:10;22.00;;;11.37;;
31754;SDS011;18325;52.018;4.726;2022-09-30T05:22:36;41.30;;;20.53;;
31754;SDS011;18325;52.018;4.726;2022-09-30T05:25:03;27.93;;;15.83;;
31754;SDS011;18325;52.018;4.726;2022-09-30T05:27:30;21.90;;;11.33;;
31754;SDS011;18325;52.018;4.726;2022-09-30T05:29:58;14.97;;;7.87;;
31754;SDS011;18325;52.018;4.726;2022-09-30T05:32:26;14.27;;;6.87;;
31754;SDS011;18325;52.018;4.726;2022-09-30T05:34:53;9.80;;;6.33;;
31754;SDS011;18325;52.018;4.726;2022-09-30T05:37:20;9.30;;;5.73;;
31754;SDS011;18325;52.018;4.726;2022-09-30T05:39:46;8.10;;;4.67;;
31754;SDS011;18325;52.018;4.726;2022-09-30T05:42:13;8.33;;;4.60;;
31754;SDS011;18325;52.018;4.726;2022-09-30T05:44:39;6.70;;;4.43;;
31754;SDS011;18325;52.018;4.726;2022-09-30T05:47:09;7.90;;;4.83;;
31754;SDS011;18325;52.018;4.726;2022-09-30T05:49:37;5.77;;;4.17;;
31754;SDS011;18325;52.018;4.726;2022-09-30T05:52:05;9.47;;;4.40;;
31754;SDS011;18325;52.018;4.726;2022-09-30T05:54:32;7.80;;;4.70;;
31754;SDS011;18325;52.018;4.726;2022-09-30T05:56:58;6.03;;;3.90;;
31754;SDS011;18325;52.018;4.726;2022-09-30T05:59:25;6.57;;;4.23;;
31754;SDS011;18325;52.018;4.726;2022-09-30T06:01:51;5.57;;;3.73;;
31754;SDS011;18325;52.018;4.726;2022-09-30T06:04:19;8.83;;;5.43;;
31754;SDS011;18325;52.018;4.726;2022-09-30T06:06:49;21.07;;;10.27;;
31754;SDS011;18325;52.018;4.726;2022-09-30T06:09:15;12.13;;;7.53;;
31754;SDS011;18325;52.018;4.726;2022-09-30T06:11:42;12.07;;;5.83;;
31754;SDS011;18325;52.018;4.726;2022-09-30T06:14:09;8.03;;;4.47;;
31754;SDS011;18325;52.018;4.726;2022-09-30T06:16:35;6.97;;;4.30;;
31754;SDS011;18325;52.018;4.726;2022-09-30T06:19:02;4.77;;;3.40;;
31754;SDS011;18325;52.018;4.726;2022-09-30T06:21:30;6.53;;;3.83;;
31754;SDS011;18325;52.018;4.726;2022-09-30T06:23:58;5.57;;;3.50;;
31754;SDS011;18325;52.018;4.726;2022-09-30T06:26:24;4.53;;;3.53;;
31754;SDS011;18325;52.018;4.726;2022-09-30T06:28:51;8.00;;;4.50;;
31754;SDS011;18325;52.018;4.726;2022-09-30T06:31:19;7.37;;;4.33;;
31754;SDS011;18325;52.018;4.726;2022-09-30T06:33:46;7.40;;;4.67;;
31754;SDS011;18325;52.018;4.726;2022-09-30T06:36:13;8.47;;;4.07;;
31754;SDS011;18325;52.018;4.726;2022-09-30T06:38:41;6.07;;;3.80;;
31754;SDS011;18325;52.018;4.726;2022-09-30T06:41:08;6.07;;;4.93;;
31754;SDS011;18325;52.018;4.726;2022-09-30T06:43:35;6.13;;;4.30;;
31754;SDS011;18325;52.018;4.726;2022-09-30T06:46:02;8.13;;;5.43;;
31754;SDS011;18325;52.018;4.726;2022-09-30T06:48:29;10.87;;;6.03;;
31754;SDS011;18325;52.018;4.726;2022-09-30T06:50:56;9.17;;;5.40;;
31754;SDS011;18325;52.018;4.726;2022-09-30T06:53:24;8.27;;;5.93;;
31754;SDS011;18325;52.018;4.726;2022-09-30T06:55:53;8.50;;;5.47;;
31754;SDS011;18325;52.018;4.726;2022-09-30T06:58:22;8.70;;;6.63;;
31754;SDS011;18325;52.018;4.726;2022-09-30T07:00:55;7.10;;;5.27;;
31754;SDS011;18325;52.018;4.726;2022-09-30T07:03:22;9.90;;;5.80;;
31754;SDS011;18325;52.018;4.726;2022-09-30T07:05:54;10.77;;;6.03;;
31754;SDS011;18325;52.018;4.726;2022-09-30T07:08:22;10.30;;;6.37;;
31754;SDS011;18325;52.018;4.726;2022-09-30T07:10:50;10.73;;;6.67;;
31754;SDS011;18325;52.018;4.726;2022-09-30T07:13:23;12.83;;;7.37;;
31754;SDS011;18325;52.018;4.726;2022-09-30T07:15:50;12.53;;;7.33;;
31754;SDS011;18325;52.018;4.726;2022-09-30T07:18:18;16.30;;;7.70;;
31754;SDS011;18325;52.018;4.726;2022-09-30T07:20:48;13.50;;;8.20;;
31754;SDS011;18325;52.018;4.726;2022-09-30T07:23:16;14.60;;;8.60;;
31754;SDS011;18325;52.018;4.726;2022-09-30T07:25:49;14.47;;;8.60;;
31754;SDS011;18325;52.018;4.726;2022-09-30T07:28:17;13.80;;;8.33;;
31754;SDS011;18325;52.018;4.726;2022-09-30T07:30:46;17.40;;;8.87;;
31754;SDS011;18325;52.018;4.726;2022-09-30T07:33:12;15.37;;;9.03;;
31754;SDS011;18325;52.018;4.726;2022-09-30T07:35:50;14.83;;;9.67;;
31754;SDS011;18325;52.018;4.726;2022-09-30T07:38:17;17.07;;;10.87;;
31754;SDS011;18325;52.018;4.726;2022-09-30T07:40:55;18.00;;;10.40;;
31754;SDS011;18325;52.018;4.726;2022-09-30T07:43:23;14.17;;;9.53;;
31754;SDS011;18325;52.018;4.726;2022-09-30T07:45:51;15.50;;;10.40;;
31754;SDS011;18325;52.018;4.726;2022-09-30T07:48:19;15.23;;;9.17;;
31754;SDS011;18325;52.018;4.726;2022-09-30T07:51:07;16.33;;;9.13;;
31754;SDS011;18325;52.018;4.726;2022-09-30T07:53:35;14.90;;;9.73;;
31754;SDS011;18325;52.018;4.726;2022-09-30T07:56:01;15.27;;;8.40;;
31754;SDS011;18325;52.018;4.726;2022-09-30T07:58:29;14.03;;;8.70;;
31754;SDS011;18325;52.018;4.726;2022-09-30T08:00:56;13.80;;;8.97;;
31754;SDS011;18325;52.018;4.726;2022-09-30T08:03:23;14.10;;;8.77;;
31754;SDS011;18325;52.018;4.726;2022-09-30T08:05:50;14.17;;;8.93;;
31754;SDS011;18325;52.018;4.726;2022-09-30T08:08:16;14.37;;;8.37;;
31754;SDS011;18325;52.018;4.726;2022-09-30T08:10:43;14.10;;;8.60;;
31754;SDS011;18325;52.018;4.726;2022-09-30T08:13:09;17.17;;;8.23;;
31754;SDS011;18325;52.018;4.726;2022-09-30T08:15:38;16.63;;;8.23;;
31754;SDS011;18325;52.018;4.726;2022-09-30T08:18:06;11.83;;;8.07;;
31754;SDS011;18325;52.018;4.726;2022-09-30T08:20:32;12.17;;;7.57;;
31754;SDS011;18325;52.018;4.726;2022-09-30T08:22:59;12.77;;;7.13;;
31754;SDS011;18325;52.018;4.726;2022-09-30T08:25:25;11.33;;;7.63;;
31754;SDS011;18325;52.018;4.726;2022-09-30T08:27:52;12.17;;;7.30;;
31754;SDS011;18325;52.018;4.726;2022-09-30T08:30:19;12.10;;;7.00;;
31754;SDS011;18325;52.018;4.726;2022-09-30T08:32:46;9.70;;;6.83;;
31754;SDS011;18325;52.018;4.726;2022-09-30T08:35:14;11.83;;;6.50;;
31754;SDS011;18325;52.018;4.726;2022-09-30T08:37:40;8.83;;;5.50;;
31754;SDS011;18325;52.018;4.726;2022-09-30T08:40:08;10.67;;;5.67;;
31754;SDS011;18325;52.018;4.726;2022-09-30T08:42:45;9.83;;;5.40;;
31754;SDS011;18325;52.018;4.726;2022-09-30T08:45:23;10.67;;;6.23;;
31754;SDS011;18325;52.018;4.726;2022-09-30T08:47:57;8.03;;;5.23;;
31754;SDS011;18325;52.018;4.726;2022-09-30T08:50:33;11.47;;;5.10;;
31754;SDS011;18325;52.018;4.726;2022-09-30T08:53:02;9.10;;;5.47;;
31754;SDS011;18325;52.018;4.726;2022-09-30T08:55:34;8.57;;;5.33;;
31754;SDS011;18325;52.018;4.726;2022-09-30T08:58:05;6.80;;;4.80;;
31754;SDS011;18325;52.018;4.726;2022-09-30T09:00:34;7.13;;;5.10;;
31754;SDS011;18325;52.018;4.726;2022-09-30T09:03:01;8.23;;;4.87;;
31754;SDS011;18325;52.018;4.726;2022-09-30T09:05:30;7.60;;;5.13;;
31754;SDS011;18325;52.018;4.726;2022-09-30T09:08:03;10.67;;;6.27;;
31754;SDS011;18325;52.018;4.726;2022-09-30T09:10:36;8.83;;;5.77;;
31754;SDS011;18325;52.018;4.726;2022-09-30T09:13:08;8.47;;;5.77;;
31754;SDS011;18325;52.018;4.726;2022-09-30T09:15:48;9.63;;;5.90;;
31754;SDS011;18325;52.018;4.726;2022-09-30T09:18:28;9.70;;;5.73;;
31754;SDS011;18325;52.018;4.726;2022-09-30T09:21:07;13.40;;;5.40;;
31754;SDS011;18325;52.018;4.726;2022-09-30T09:23:41;9.73;;;6.10;;
31754;SDS011;18325;52.018;4.726;2022-09-30T09:26:08;8.57;;;5.53;;
31754;SDS011;18325;52.018;4.726;2022-09-30T09:28:36;7.47;;;4.90;;
31754;SDS011;18325;52.018;4.726;2022-09-30T09:31:07;7.03;;;5.17;;
31754;SDS011;18325;52.018;4.726;2022-09-30T09:33:38;6.77;;;4.27;;
31754;SDS011;18325;52.018;4.726;2022-09-30T09:36:10;5.83;;;3.73;;
31754;SDS011;18325;52.018;4.726;2022-09-30T09:38:49;4.50;;;3.17;;
31754;SDS011;18325;52.018;4.726;2022-09-30T09:41:28;4.63;;;2.93;;
31754;SDS011;18325;52.018;4.726;2022-09-30T09:43:59;4.20;;;2.90;;
31754;SDS011;18325;52.018;4.726;2022-09-30T09:46:32;5.60;;;2.90;;
31754;SDS011;18325;52.018;4.726;2022-09-30T09:49:16;2.87;;;2.17;;
31754;SDS011;18325;52.018;4.726;2022-09-30T09:55:31;4.17;;;2.60;;
31754;SDS011;18325;52.018;4.726;2022-09-30T09:58:05;2.23;;;1.93;;
31754;SDS011;18325;52.018;4.726;2022-09-30T10:00:48;1.70;;;1.50;;
31754;SDS011;18325;52.018;4.726;2022-09-30T10:03:45;1.80;;;1.60;;
31754;SDS011;18325;52.018;4.726;2022-09-30T10:06:13;2.60;;;1.30;;
31754;SDS011;18325;52.018;4.726;2022-09-30T10:08:51;2.17;;;1.60;;
31754;SDS011;18325;52.018;4.726;2022-09-30T10:11:21;2.97;;;1.40;;
31754;SDS011;18325;52.018;4.726;2022-09-30T10:13:48;2.10;;;1.43;;
31754;SDS011;18325;52.018;4.726;2022-09-30T10:16:24;5.23;;;1.60;;
31754;SDS011;18325;52.018;4.726;2022-09-30T10:18:53;2.23;;;1.43;;
31754;SDS011;18325;52.018;4.726;2022-09-30T10:21:20;1.40;;;1.30;;
31754;SDS011;18325;52.018;4.726;2022-09-30T10:23:47;1.70;;;1.60;;
31754;SDS011;18325;52.018;4.726;2022-09-30T10:26:17;1.37;;;1.27;;
31754;SDS011;18325;52.018;4.726;2022-09-30T10:28:47;5.00;;;1.40;;
31754;SDS011;18325;52.018;4.726;2022-09-30T10:31:16;1.47;;;1.17;;
31754;SDS011;18325;52.018;4.726;2022-09-30T10:33:48;1.60;;;1.40;;
31754;SDS011;18325;52.018;4.726;2022-09-30T10:36:20;1.47;;;1.10;;
31754;SDS011;18325;52.018;4.726;2022-09-30T10:38:55;0.83;;;0.70;;
31754;SDS011;18325;52.018;4.726;2022-09-30T10:41:25;1.10;;;1.00;;
31754;SDS011;18325;52.018;4.726;2022-09-30T10:43:54;1.50;;;0.93;;
31754;SDS011;18325;52.018;4.726;2022-09-30T10:46:23;1.77;;;1.07;;
31754;SDS011;18325;52.018;4.726;2022-09-30T10:48:51;1.27;;;1.17;;
31754;SDS011;18325;52.018;4.726;2022-09-30T10:51:26;1.93;;;1.03;;
31754;SDS011;18325;52.018;4.726;2022-09-30T10:53:55;1.93;;;1.43;;
31754;SDS011;18325;52.018;4.726;2022-09-30T10:56:38;2.90;;;1.33;;
31754;SDS011;18325;52.018;4.726;2022-09-30T10:59:12;4.53;;;1.30;;
31754;SDS011;18325;52.018;4.726;2022-09-30T11:01:45;1.20;;;1.10;;
31754;SDS011;18325;52.018;4.726;2022-09-30T11:04:16;2.00;;;1.20;;
31754;SDS011;18325;52.018;4.726;2022-09-30T11:06:46;1.27;;;0.80;;
31754;SDS011;18325;52.018;4.726;2022-09-30T11:09:16;1.03;;;0.77;;
31754;SDS011;18325;52.018;4.726;2022-09-30T11:11:58;1.43;;;1.03;;
31754;SDS011;18325;52.018;4.726;2022-09-30T11:14:30;1.13;;;0.90;;
31754;SDS011;18325;52.018;4.726;2022-09-30T11:17:09;4.40;;;0.93;;
31754;SDS011;18325;52.018;4.726;2022-09-30T11:19:43;1.10;;;0.80;;
31754;SDS011;18325;52.018;4.726;2022-09-30T11:22:19;1.63;;;1.03;;
31754;SDS011;18325;52.018;4.726;2022-09-30T11:24:49;1.10;;;1.00;;
31754;SDS011;18325;52.018;4.726;2022-09-30T11:27:18;2.47;;;1.10;;
31754;SDS011;18325;52.018;4.726;2022-09-30T11:29:54;1.20;;;1.07;;
31754;SDS011;18325;52.018;4.726;2022-09-30T11:32:37;3.90;;;1.37;;
31754;SDS011;18325;52.018;4.726;2022-09-30T11:35:17;2.03;;;1.70;;
31754;SDS011;18325;52.018;4.726;2022-09-30T11:37:55;2.13;;;1.70;;
31754;SDS011;18325;52.018;4.726;2022-09-30T11:40:32;4.23;;;2.33;;
31754;SDS011;18325;52.018;4.726;2022-09-30T11:43:05;2.30;;;2.10;;
31754;SDS011;18325;52.018;4.726;2022-09-30T11:45:39;3.70;;;2.27;;
31754;SDS011;18325;52.018;4.726;2022-09-30T11:48:26;4.87;;;2.30;;
31754;SDS011;18325;52.018;4.726;2022-09-30T11:51:03;4.10;;;2.27;;
31754;SDS011;18325;52.018;4.726;2022-09-30T11:53:36;6.53;;;2.30;;
31754;SDS011;18325;52.018;4.726;2022-09-30T11:56:11;3.57;;;2.87;;
31754;SDS011;18325;52.018;4.726;2022-09-30T11:58:44;4.57;;;3.23;;
31754;SDS011;18325;52.018;4.726;2022-09-30T12:01:17;4.33;;;3.20;;
31754;SDS011;18325;52.018;4.726;2022-09-30T12:03:47;3.87;;;3.17;;
31754;SDS011;18325;52.018;4.726;2022-09-30T12:06:23;4.03;;;3.20;;
31754;SDS011;18325;52.018;4.726;2022-09-30T12:08:54;4.47;;;3.30;;
31754;SDS011;18325;52.018;4.726;2022-09-30T12:11:26;5.60;;;3.40;;
31754;SDS011;18325;52.018;4.726;2022-09-30T12:13:58;5.13;;;3.40;;
31754;SDS011;18325;52.018;4.726;2022-09-30T12:16:31;4.43;;;2.97;;
31754;SDS011;18325;52.018;4.726;2022-09-30T12:19:01;3.43;;;2.37;;
31754;SDS011;18325;52.018;4.726;2022-09-30T12:21:31;2.57;;;2.13;;
31754;SDS011;18325;52.018;4.726;2022-09-30T12:24:01;5.77;;;2.70;;
31754;SDS011;18325;52.018;4.726;2022-09-30T12:26:29;5.43;;;3.00;;
31754;SDS011;18325;52.018;4.726;2022-09-30T12:28:56;4.43;;;3.00;;
31754;SDS011;18325;52.018;4.726;2022-09-30T12:31:59;4.60;;;3.43;;
31754;SDS011;18325;52.018;4.726;2022-09-30T12:34:46;4.50;;;3.47;;
31754;SDS011;18325;52.018;4.726;2022-09-30T12:37:32;3.97;;;2.60;;
31754;SDS011;18325;52.018;4.726;2022-09-30T12:40:25;4.10;;;2.60;;
31754;SDS011;18325;52.018;4.726;2022-09-30T12:43:06;2.30;;;1.80;;
31754;SDS011;18325;52.018;4.726;2022-09-30T12:45:57;3.60;;;1.90;;
31754;SDS011;18325;52.018;4.726;2022-09-30T12:48:37;3.10;;;1.50;;
31754;SDS011;18325;52.018;4.726;2022-09-30T12:51:05;2.33;;;1.53;;
31754;SDS011;18325;52.018;4.726;2022-09-30T12:53:32;3.00;;;1.60;;
31754;SDS011;18325;52.018;4.726;2022-09-30T12:56:01;2.27;;;2.07;;
31754;SDS011;18325;52.018;4.726;2022-09-30T12:58:30;4.17;;;2.33;;
31754;SDS011;18325;52.018;4.726;2022-09-30T13:00:59;4.53;;;2.40;;
31754;SDS011;18325;52.018;4.726;2022-09-30T13:03:28;4.43;;;2.60;;
31754;SDS011;18325;52.018;4.726;2022-09-30T13:06:12;3.10;;;2.00;;
31754;SDS011;18325;52.018;4.726;2022-09-30T13:08:41;2.40;;;2.20;;
31754;SDS011;18325;52.018;4.726;2022-09-30T13:16:56;4.50;;;2.27;;
31754;SDS011;18325;52.018;4.726;2022-09-30T13:19:31;2.23;;;2.00;;
31754;SDS011;18325;52.018;4.726;2022-09-30T13:25:15;6.27;;;1.90;;
31754;SDS011;18325;52.018;4.726;2022-09-30T13:27:43;3.37;;;1.90;;
31754;SDS011;18325;52.018;4.726;2022-09-30T13:33:24;2.20;;;1.80;;
31754;SDS011;18325;52.018;4.726;2022-09-30T13:35:58;4.30;;;2.20;;
31754;SDS011;18325;52.018;4.726;2022-09-30T13:38:34;2.40;;;2.20;;
31754;SDS011;18325;52.018;4.726;2022-09-30T13:41:13;4.40;;;2.13;;
31754;SDS011;18325;52.018;4.726;2022-09-30T13:43:45;2.40;;;2.03;;
31754;SDS011;18325;52.018;4.726;2022-09-30T13:46:18;3.80;;;1.90;;
31754;SDS011;18325;52.018;4.726;2022-09-30T13:48:49;3.23;;;1.67;;
31754;SDS011;18325;52.018;4.726;2022-09-30T13:51:19;2.80;;;1.80;;
31754;SDS011;18325;52.018;4.726;2022-09-30T13:53:47;2.80;;;1.70;;
31754;SDS011;18325;52.018;4.726;2022-09-30T13:56:17;5.20;;;3.63;;
31754;SDS011;18325;52.018;4.726;2022-09-30T13:58:53;9.63;;;4.63;;
31754;SDS011;18325;52.018;4.726;2022-09-30T14:01:40;5.23;;;2.77;;
31754;SDS011;18325;52.018;4.726;2022-09-30T14:04:24;2.87;;;2.20;;
31754;SDS011;18325;52.018;4.726;2022-09-30T14:07:04;3.40;;;2.17;;
31754;SDS011;18325;52.018;4.726;2022-09-30T14:09:42;4.17;;;2.30;;
31754;SDS011;18325;52.018;4.726;2022-09-30T14:12:24;2.43;;;2.17;;
31754;SDS011;18325;52.018;4.726;2022-09-30T14:18:05;4.03;;;2.13;;
31754;SDS011;18325;52.018;4.726;2022-09-30T14:20:46;3.90;;;2.20;;
31754;SDS011;18325;52.018;4.726;2022-09-30T14:23:21;3.40;;;2.53;;
31754;SDS011;18325;52.018;4.726;2022-09-30T14:25:50;3.67;;;2.17;;
31754;SDS011;18325;52.018;4.726;2022-09-30T14:28:21;3.63;;;2.87;;
31754;SDS011;18325;52.018;4.726;2022-09-30T14:30:58;5.77;;;2.50;;
31754;SDS011;18325;52.018;4.726;2022-09-30T14:33:36;3.33;;;2.97;;
31754;SDS011;18325;52.018;4.726;2022-09-30T14:36:05;5.10;;;3.37;;
31754;SDS011;18325;52.018;4.726;2022-09-30T14:38:38;4.17;;;3.10;;
31754;SDS011;18325;52.018;4.726;2022-09-30T14:41:12;6.20;;;3.90;;
31754;SDS011;18325;52.018;4.726;2022-09-30T14:43:41;6.73;;;3.77;;
31754;SDS011;18325;52.018;4.726;2022-09-30T14:46:12;4.57;;;3.37;;
31754;SDS011;18325;52.018;4.726;2022-09-30T14:48:41;9.40;;;6.27;;
31754;SDS011;18325;52.018;4.726;2022-09-30T14:51:10;9.47;;;6.33;;
31754;SDS011;18325;52.018;4.726;2022-09-30T14:53:53;6.13;;;4.23;;
31754;SDS011;18325;52.018;4.726;2022-09-30T14:56:24;5.17;;;4.20;;
31754;SDS011;18325;52.018;4.726;2022-09-30T14:58:54;5.07;;;3.77;;
31754;SDS011;18325;52.018;4.726;2022-09-30T15:01:23;4.80;;;4.20;;
31754;SDS011;18325;52.018;4.726;2022-09-30T15:03:51;5.67;;;4.17;;
31754;SDS011;18325;52.018;4.726;2022-09-30T15:06:21;5.60;;;3.80;;
31754;SDS011;18325;52.018;4.726;2022-09-30T15:08:48;3.33;;;3.03;;
31754;SDS011;18325;52.018;4.726;2022-09-30T15:11:17;9.47;;;3.40;;
31754;SDS011;18325;52.018;4.726;2022-09-30T15:13:45;5.63;;;3.00;;
31754;SDS011;18325;52.018;4.726;2022-09-30T15:16:20;3.90;;;3.13;;
31754;SDS011;18325;52.018;4.726;2022-09-30T15:18:48;3.57;;;3.00;;
31754;SDS011;18325;52.018;4.726;2022-09-30T15:21:15;5.43;;;2.67;;
31754;SDS011;18325;52.018;4.726;2022-09-30T15:23:43;6.33;;;2.87;;
31754;SDS011;18325;52.018;4.726;2022-09-30T15:26:15;4.20;;;2.30;;
31754;SDS011;18325;52.018;4.726;2022-09-30T15:28:43;6.83;;;2.73;;
31754;SDS011;18325;52.018;4.726;2022-09-30T15:31:16;4.27;;;3.10;;
31754;SDS011;18325;52.018;4.726;2022-09-30T15:33:46;3.80;;;3.00;;